Time;durP1;ratioP1;P1;durP2;ratioP2;P2;SDS_P1;SDS_P2;PMS_P1;PMS_P2;Temp;Humidity;BMP_temperature;BMP_pressure;BME280_temperature;BME280_humidity;BME280_pressure;Samples;Min_cycle;Max_cycle;Signal;HPM_P1;HPM_P2
2022/06/17 00:01:03;;;;;;;6.75;4.68;;;;;;;;;;5066602;28;20056;-58
2022/06/17 00:03:31;;;;;;;8.05;4.65;;;;;;;;;;5065325;28;20102;-58
2022/06/17 00:05:58;;;;;;;7.57;4.65;;;;;;;;;;5065977;28;20379;-58
2022/06/17 00:08:27;;;;;;;7.50;5.05;;;;;;;;;;5066697;28;20048;-58
2022/06/17 00:10:55;;;;;;;7.38;5.47;;;;;;;;;;5066437;28;20044;-59
2022/06/17 00:13:22;;;;;;;7.88;5.85;;;;;;;;;;5066286;28;20118;-58
2022/06/17 00:15:48;;;;;;;10.23;5.60;;;;;;;;;;5065714;28;20041;-58
2022/06/17 00:18:16;;;;;;;8.20;4.88;;;;;;;;;;5066734;28;20429;-58
2022/06/17 00:20:42;;;;;;;8.10;5.13;;;;;;;;;;5064963;28;20033;-58
2022/06/17 00:23:12;;;;;;;11.85;5.80;;;;;;;;;;5066326;28;20302;-58
2022/06/17 00:25:39;;;;;;;7.57;5.30;;;;;;;;;;5066163;28;20040;-58
2022/06/17 00:28:10;;;;;;;10.63;5.18;;;;;;;;;;5066434;28;20051;-58
2022/06/17 00:30:36;;;;;;;11.43;5.65;;;;;;;;;;5064831;28;20549;-58
2022/06/17 00:33:03;;;;;;;7.47;5.93;;;;;;;;;;5065446;28;20064;-58
2022/06/17 00:35:31;;;;;;;13.75;6.25;;;;;;;;;;5065443;28;20097;-58
2022/06/17 00:37:58;;;;;;;13.32;6.90;;;;;;;;;;5066227;28;20043;-58
2022/06/17 00:40:26;;;;;;;10.13;6.32;;;;;;;;;;5065636;28;20458;-58
2022/06/17 00:42:52;;;;;;;;;;;;;;;;;;5066606;28;20076;-58
2022/06/17 00:45:30;;;;;;;12.68;6.95;;;;;;;;;;5064655;28;19959;-59
2022/06/17 00:47:56;;;;;;;11.15;7.15;;;;;;;;;;5065871;28;20032;-58
2022/06/17 00:50:30;;;;;;;9.70;7.18;;;;;;;;;;5064078;28;20056;-58
2022/06/17 00:53:05;;;;;;;10.90;6.90;;;;;;;;;;5065663;28;20040;-58
2022/06/17 00:55:37;;;;;;;13.35;7.25;;;;;;;;;;5065276;28;20040;-58
2022/06/17 00:58:08;;;;;;;9.50;6.80;;;;;;;;;;5065457;28;20084;-58
2022/06/17 01:00:34;;;;;;;11.80;7.32;;;;;;;;;;5064498;28;20105;-58
2022/06/17 01:03:03;;;;;;;10.43;6.57;;;;;;;;;;5065257;28;20044;-58
2022/06/17 01:05:31;;;;;;;8.00;6.53;;;;;;;;;;5065352;28;20040;-59
2022/06/17 01:07:59;;;;;;;11.45;6.80;;;;;;;;;;5064620;28;20036;-59
2022/06/17 01:10:25;;;;;;;;;;;;;;;;;;5065400;28;20410;-58
2022/06/17 01:12:56;;;;;;;14.55;6.80;;;;;;;;;;5065343;28;19927;-58
2022/06/17 01:15:23;;;;;;;8.70;6.35;;;;;;;;;;5064342;28;20041;-58
2022/06/17 01:17:49;;;;;;;12.70;6.38;;;;;;;;;;5065231;28;20124;-58
2022/06/17 01:20:16;;;;;;;10.32;7.32;;;;;;;;;;5065738;28;20048;-58
2022/06/17 01:22:43;;;;;;;11.20;7.32;;;;;;;;;;5064979;28;20047;-58
2022/06/17 01:25:18;;;;;;;12.27;6.97;;;;;;;;;;5065141;28;20047;-58
2022/06/17 01:27:46;;;;;;;10.00;7.22;;;;;;;;;;5064086;28;20044;-58
2022/06/17 01:30:14;;;;;;;9.20;7.03;;;;;;;;;;5064473;28;20048;-58
2022/06/17 01:32:50;;;;;;;9.65;6.95;;;;;;;;;;5064776;28;20110;-58
2022/06/17 01:35:18;;;;;;;9.93;7.35;;;;;;;;;;5064993;28;20040;-58
2022/06/17 01:37:44;;;;;;;11.55;7.45;;;;;;;;;;5064967;28;20102;-58
2022/06/17 01:40:11;;;;;;;9.43;7.22;;;;;;;;;;5064669;28;20128;-58
2022/06/17 01:42:39;;;;;;;10.15;6.60;;;;;;;;;;5064939;28;20089;-58
2022/06/17 01:45:06;;;;;;;11.15;6.38;;;;;;;;;;5064025;28;20053;-58
2022/06/17 01:47:33;;;;;;;13.50;6.90;;;;;;;;;;5064343;28;20086;-59
2022/06/17 01:50:02;;;;;;;10.10;6.40;;;;;;;;;;5064559;28;20286;-58
2022/06/17 01:52:33;;;;;;;9.75;6.45;;;;;;;;;;5063967;28;20037;-58
2022/06/17 01:55:18;;;;;;;10.00;6.22;;;;;;;;;;5064741;28;20453;-58
2022/06/17 01:57:47;;;;;;;9.82;6.47;;;;;;;;;;5064085;28;20549;-58
2022/06/17 02:00:17;;;;;;;12.10;6.65;;;;;;;;;;5063823;28;20446;-58
2022/06/17 02:02:44;;;;;;;13.80;6.95;;;;;;;;;;5064422;28;20037;-58
2022/06/17 02:05:11;;;;;;;11.40;6.97;;;;;;;;;;5064143;28;20044;-58
2022/06/17 02:07:42;;;;;;;8.18;6.45;;;;;;;;;;5063992;28;20294;-59
2022/06/17 02:10:08;;;;;;;12.48;6.82;;;;;;;;;;5063489;28;20394;-58
2022/06/17 02:12:35;;;;;;;12.65;6.88;;;;;;;;;;5063961;28;20041;-58
2022/06/17 02:15:01;;;;;;;11.93;7.20;;;;;;;;;;5063309;28;20575;-58
2022/06/17 02:17:30;;;;;;;12.85;7.30;;;;;;;;;;5063806;28;20040;-58
2022/06/17 02:19:56;;;;;;;10.65;7.30;;;;;;;;;;5064057;28;20044;-58
2022/06/17 02:22:25;;;;;;;12.02;7.82;;;;;;;;;;5063433;28;20044;-58
2022/06/17 02:24:51;;;;;;;;;;;;;;;;;;5064469;28;20533;-58
2022/06/17 02:27:18;;;;;;;17.98;7.68;;;;;;;;;;5064311;28;19927;-59
2022/06/17 02:29:45;;;;;;;11.27;7.57;;;;;;;;;;5063880;28;20047;-58
2022/06/17 02:32:12;;;;;;;10.68;7.93;;;;;;;;;;5064007;28;20048;-58
2022/06/17 02:34:44;;;;;;;11.43;7.78;;;;;;;;;;5063834;28;20087;-58
2022/06/17 02:37:12;;;;;;;15.95;8.57;;;;;;;;;;5063405;28;20040;-58
2022/06/17 02:39:41;;;;;;;13.77;8.13;;;;;;;;;;5063980;28;20041;-59
2022/06/17 02:42:11;;;;;;;11.40;7.88;;;;;;;;;;5063531;28;20044;-58
2022/06/17 02:44:40;;;;;;;13.98;7.68;;;;;;;;;;5063419;28;20498;-58
2022/06/17 02:47:07;;;;;;;11.48;8.10;;;;;;;;;;5062575;28;20083;-58
2022/06/17 02:49:35;;;;;;;14.82;8.30;;;;;;;;;;5062936;28;20090;-58
2022/06/17 02:52:02;;;;;;;13.57;8.32;;;;;;;;;;5063820;28;20044;-58
2022/06/17 02:54:36;;;;;;;11.53;8.33;;;;;;;;;;5062328;28;20100;-57
2022/06/17 02:57:03;;;;;;;14.35;8.02;;;;;;;;;;5063650;28;20126;-58
2022/06/17 02:59:35;;;;;;;12.73;7.55;;;;;;;;;;5063052;28;20041;-58
2022/06/17 03:02:05;;;;;;;17.10;7.70;;;;;;;;;;5063452;28;20518;-58
2022/06/17 03:04:33;;;;;;;10.77;7.70;;;;;;;;;;5063214;28;20498;-58
2022/06/17 03:06:59;;;;;;;11.10;7.13;;;;;;;;;;5063744;28;20044;-58
2022/06/17 03:09:27;;;;;;;11.35;7.78;;;;;;;;;;5063315;28;20044;-58
2022/06/17 03:11:56;;;;;;;35.42;8.13;;;;;;;;;;5063874;28;20131;-58
2022/06/17 03:14:25;;;;;;;16.10;7.97;;;;;;;;;;5062372;28;20051;-58
2022/06/17 03:16:51;;;;;;;;;;;;;;;;;;5064041;28;20047;-58
2022/06/17 03:19:17;;;;;;;12.98;8.18;;;;;;;;;;5063683;28;19920;-58
2022/06/17 03:21:43;;;;;;;12.13;8.20;;;;;;;;;;5063050;28;20041;-58
2022/06/17 03:24:20;;;;;;;12.38;7.95;;;;;;;;;;5067469;28;20037;-58
2022/06/17 03:26:50;;;;;;;12.35;8.27;;;;;;;;;;5067300;28;20040;-58
2022/06/17 03:29:18;;;;;;;13.68;7.70;;;;;;;;;;5065560;28;20080;-58
2022/06/17 03:31:50;;;;;;;11.25;8.43;;;;;;;;;;5067669;28;20071;-58
2022/06/17 03:34:21;;;;;;;11.85;7.75;;;;;;;;;;5067585;28;20079;-57
2022/06/17 03:36:51;;;;;;;12.55;8.15;;;;;;;;;;5065518;28;20465;-58
2022/06/17 03:39:21;;;;;;;11.68;8.20;;;;;;;;;;5066568;28;20544;-58
2022/06/17 03:41:51;;;;;;;14.63;8.35;;;;;;;;;;5067283;28;20127;-59
2022/06/17 03:44:20;;;;;;;13.18;8.30;;;;;;;;;;5066137;28;20063;-59
2022/06/17 03:46:49;;;;;;;11.70;8.38;;;;;;;;;;5067408;28;20037;-58
2022/06/17 03:49:27;;;;;;;11.73;7.65;;;;;;;;;;5067032;28;20040;-58
2022/06/17 03:51:55;;;;;;;15.23;7.97;;;;;;;;;;5066374;28;20040;-58
2022/06/17 03:54:21;;;;;;;;;;;;;;;;;;5067018;28;20050;-58
2022/06/17 03:56:50;;;;;;;12.18;8.25;;;;;;;;;;5066915;28;19920;-58
2022/06/17 03:59:18;;;;;;;14.02;8.43;;;;;;;;;;5066099;28;20040;-58
2022/06/17 04:01:46;;;;;;;14.07;8.07;;;;;;;;;;5066739;28;20044;-58
2022/06/17 04:04:15;;;;;;;14.73;9.10;;;;;;;;;;5066854;28;20381;-58
2022/06/17 04:06:42;;;;;;;17.15;8.77;;;;;;;;;;5066425;28;20485;-58
2022/06/17 04:09:20;;;;;;;11.10;7.95;;;;;;;;;;5066615;28;20045;-58
2022/06/17 04:11:48;;;;;;;14.63;8.40;;;;;;;;;;5066698;28;20047;-58
2022/06/17 04:14:16;;;;;;;20.85;8.73;;;;;;;;;;5065638;28;20589;-58
2022/06/17 04:16:46;;;;;;;12.65;8.18;;;;;;;;;;5066622;28;20048;-58
2022/06/17 04:19:16;;;;;;;17.73;9.02;;;;;;;;;;5066910;28;20581;-58
2022/06/17 04:21:42;;;;;;;19.33;8.85;;;;;;;;;;5066414;28;20067;-58
2022/06/17 04:24:13;;;;;;;14.27;8.55;;;;;;;;;;5066371;28;20123;-58
2022/06/17 04:26:40;;;;;;;12.18;8.32;;;;;;;;;;5065790;28;20067;-58
2022/06/17 04:29:10;;;;;;;12.10;8.35;;;;;;;;;;5065502;28;20040;-59
2022/06/17 04:31:36;;;;;;;14.00;8.55;;;;;;;;;;5066062;28;20049;-58
2022/06/17 04:34:05;;;;;;;20.58;8.55;;;;;;;;;;5065789;28;20037;-58
2022/06/17 04:36:33;;;;;;;10.63;8.43;;;;;;;;;;5065513;28;20094;-58
2022/06/17 04:38:59;;;;;;;;;;;;;;;;;;5065706;28;20144;-58
2022/06/17 04:41:28;;;;;;;16.25;8.57;;;;;;;;;;5064918;28;19920;-58
2022/06/17 04:43:56;;;;;;;15.88;8.55;;;;;;;;;;5064393;28;20698;-58
2022/06/17 04:46:39;;;;;;;15.13;10.10;;;;;;;;;;5065037;28;20051;-58
2022/06/17 04:49:07;;;;;;;12.05;8.68;;;;;;;;;;5064542;28;20045;-59
2022/06/17 04:51:35;;;;;;;12.32;8.73;;;;;;;;;;5065032;28;20046;-59
2022/06/17 04:54:03;;;;;;;13.23;8.75;;;;;;;;;;5065817;28;20048;-59
2022/06/17 04:56:33;;;;;;;11.65;8.50;;;;;;;;;;5065434;28;20041;-59
2022/06/17 04:58:59;;;;;;;11.88;8.43;;;;;;;;;;5064601;28;20056;-58
2022/06/17 05:01:26;;;;;;;14.57;8.93;;;;;;;;;;5064975;28;20182;-59
2022/06/17 05:03:53;;;;;;;16.00;8.15;;;;;;;;;;5064556;28;20110;-59
2022/06/17 05:06:20;;;;;;;46.83;9.07;;;;;;;;;;5064885;28;20673;-60
2022/06/17 05:08:49;;;;;;;15.80;8.32;;;;;;;;;;5065715;28;20098;-59
2022/06/17 05:11:17;;;;;;;11.15;7.78;;;;;;;;;;5063785;28;20044;-59
2022/06/17 05:13:56;;;;;;;12.45;8.35;;;;;;;;;;5062691;28;20567;-59
2022/06/17 05:16:22;;;;;;;;;;;;;;;;;;5063292;28;20045;-59
2022/06/17 05:18:49;;;;;;;14.07;8.85;;;;;;;;;;5064094;28;19934;-59
2022/06/17 05:21:23;;;;;;;13.35;8.38;;;;;;;;;;5064368;28;20505;-58
2022/06/17 05:23:51;;;;;;;15.65;8.90;;;;;;;;;;5063848;28;20115;-58
2022/06/17 05:26:17;;;;;;;11.80;8.52;;;;;;;;;;5063456;28;20044;-59
2022/06/17 05:28:43;;;;;;;14.32;8.65;;;;;;;;;;5063296;28;20127;-58
2022/06/17 05:31:11;;;;;;;13.02;8.55;;;;;;;;;;5063374;28;20037;-58
2022/06/17 05:33:37;;;;;;;12.38;9.30;;;;;;;;;;5063903;28;20070;-59
2022/06/17 05:36:04;;;;;;;11.80;8.93;;;;;;;;;;5065103;28;20049;-59
2022/06/17 05:38:30;;;;;;;21.10;9.15;;;;;;;;;;5064675;28;20028;-59
2022/06/17 05:40:57;;;;;;;16.23;8.95;;;;;;;;;;5063057;28;20113;-59
2022/06/17 05:43:23;;;;;;;20.42;9.98;;;;;;;;;;5062860;28;20101;-59
2022/06/17 05:45:49;;;;;;;18.48;9.38;;;;;;;;;;5062963;28;20051;-59
2022/06/17 05:48:15;;;;;;;14.85;8.95;;;;;;;;;;5064969;28;20131;-59
2022/06/17 05:50:42;;;;;;;13.68;8.98;;;;;;;;;;5063389;28;20040;-58
2022/06/17 05:53:10;;;;;;;14.70;9.82;;;;;;;;;;5063356;28;20097;-58
2022/06/17 05:55:37;;;;;;;15.00;9.02;;;;;;;;;;5063359;28;20689;-59
2022/06/17 05:58:03;;;;;;;13.75;8.75;;;;;;;;;;5063046;28;20044;-59
2022/06/17 06:00:31;;;;;;;17.35;9.48;;;;;;;;;;5063878;28;20037;-60
2022/06/17 06:02:59;;;;;;;22.08;9.70;;;;;;;;;;5064103;28;20040;-59
2022/06/17 06:05:26;;;;;;;15.80;10.02;;;;;;;;;;5062126;28;20553;-59
2022/06/17 06:07:53;;;;;;;17.73;9.98;;;;;;;;;;5062544;28;20047;-59
2022/06/17 06:10:20;;;;;;;14.98;9.43;;;;;;;;;;5062076;28;20130;-59
2022/06/17 06:12:53;;;;;;;82.95;12.48;;;;;;;;;;5062736;28;20044;-59
2022/06/17 06:15:19;;;;;;;11.88;9.73;;;;;;;;;;5063430;28;20037;-59
2022/06/17 06:17:46;;;;;;;14.82;9.50;;;;;;;;;;5064386;28;20052;-59
2022/06/17 06:20:12;;;;;;;14.45;9.93;;;;;;;;;;5063652;28;20047;-59
2022/06/17 06:22:39;;;;;;;17.95;10.60;;;;;;;;;;5062060;28;20048;-59
2022/06/17 06:25:05;;;;;;;14.35;9.68;;;;;;;;;;5063601;28;20843;-59
2022/06/17 06:27:31;;;;;;;14.32;9.02;;;;;;;;;;5061002;28;20608;-59
2022/06/17 06:29:57;;;;;;;17.70;10.10;;;;;;;;;;5063128;28;20118;-59
2022/06/17 06:32:23;;;;;;;15.07;10.02;;;;;;;;;;5063501;28;20482;-59
2022/06/17 06:34:51;;;;;;;13.23;9.80;;;;;;;;;;5063612;28;20064;-60
2022/06/17 06:37:17;;;;;;;12.77;9.90;;;;;;;;;;5061826;28;20052;-59
2022/06/17 06:39:44;;;;;;;16.20;10.25;;;;;;;;;;5063507;28;20040;-59
2022/06/17 06:42:11;;;;;;;15.02;9.45;;;;;;;;;;5060659;28;20048;-59
2022/06/17 06:44:37;;;;;;;15.52;9.50;;;;;;;;;;5062745;28;20651;-59
2022/06/17 06:47:03;;;;;;;15.27;9.75;;;;;;;;;;5063248;28;20036;-59
2022/06/17 06:49:29;;;;;;;16.92;9.88;;;;;;;;;;5062782;28;20524;-59
2022/06/17 06:51:55;;;;;;;12.93;9.52;;;;;;;;;;5063705;28;20633;-59
2022/06/17 06:54:21;;;;;;;14.75;9.77;;;;;;;;;;5063056;28;20414;-59
2022/06/17 06:56:48;;;;;;;14.43;10.15;;;;;;;;;;5065217;28;20072;-59
2022/06/17 06:59:14;;;;;;;23.50;10.30;;;;;;;;;;5067016;28;20142;-59
2022/06/17 07:01:40;;;;;;;14.93;10.25;;;;;;;;;;5067372;28;20036;-59
2022/06/17 07:04:06;;;;;;;18.45;10.20;;;;;;;;;;5067343;28;20045;-59
2022/06/17 07:06:34;;;;;;;13.02;9.75;;;;;;;;;;5067170;28;20075;-59
2022/06/17 07:09:00;;;;;;;13.65;9.60;;;;;;;;;;5066556;28;20048;-59
2022/06/17 07:11:26;;;;;;;14.38;9.75;;;;;;;;;;5067144;28;20119;-59
2022/06/17 07:13:53;;;;;;;16.65;9.63;;;;;;;;;;5066747;28;20024;-59
2022/06/17 07:16:19;;;;;;;16.95;9.68;;;;;;;;;;5066670;28;20063;-59
2022/06/17 07:18:45;;;;;;;11.77;8.82;;;;;;;;;;5067573;28;20075;-60
2022/06/17 07:21:14;;;;;;;15.70;9.73;;;;;;;;;;5067373;28;20055;-60
2022/06/17 07:23:41;;;;;;;12.45;8.95;;;;;;;;;;5066782;28;20117;-59
2022/06/17 07:26:09;;;;;;;13.93;8.55;;;;;;;;;;5066348;28;20041;-59
2022/06/17 07:28:35;;;;;;;11.35;8.40;;;;;;;;;;5065987;28;20060;-60
2022/06/17 07:31:02;;;;;;;13.02;8.20;;;;;;;;;;5067123;28;20037;-59
2022/06/17 07:33:29;;;;;;;16.63;8.98;;;;;;;;;;5066412;28;20044;-60
2022/06/17 07:35:57;;;;;;;12.23;8.40;;;;;;;;;;5066279;28;20040;-58
2022/06/17 07:41:12;;;;;;;11.00;8.07;;;;;;;;;;5065957;28;20040;-59
2022/06/17 07:43:38;;;;;;;52.38;9.70;;;;;;;;;;5065359;28;20576;-59
2022/06/17 07:46:04;;;;;;;13.65;8.15;;;;;;;;;;5066561;28;20055;-59
2022/06/17 07:48:32;;;;;;;17.92;8.43;;;;;;;;;;5066286;28;20040;-60
2022/06/17 07:50:58;;;;;;;18.42;8.30;;;;;;;;;;5065325;28;20550;-59
2022/06/17 07:53:25;;;;;;;14.20;8.77;;;;;;;;;;5066421;28;20124;-59
2022/06/17 07:55:52;;;;;;;12.98;8.18;;;;;;;;;;5066226;28;20045;-60
2022/06/17 07:58:18;;;;;;;13.57;8.23;;;;;;;;;;5061519;28;20060;-59
2022/06/17 08:00:45;;;;;;;12.30;7.15;;;;;;;;;;5066722;28;20039;-60
2022/06/17 08:03:13;;;;;;;15.35;9.10;;;;;;;;;;5065821;28;20300;-60
2022/06/17 08:05:41;;;;;;;13.63;8.27;;;;;;;;;;5065946;28;20041;-59
2022/06/17 08:08:08;;;;;;;17.65;7.97;;;;;;;;;;5065733;28;20123;-59
2022/06/17 08:10:35;;;;;;;15.93;8.30;;;;;;;;;;5066025;28;20037;-60
2022/06/17 08:13:02;;;;;;;12.18;8.15;;;;;;;;;;5065358;28;20624;-60
2022/06/17 08:15:28;;;;;;;11.48;8.05;;;;;;;;;;5065472;28;20174;-60
2022/06/17 08:17:56;;;;;;;11.73;8.50;;;;;;;;;;5065871;28;20079;-60
2022/06/17 08:20:24;;;;;;;14.13;7.63;;;;;;;;;;5065679;28;20072;-59
2022/06/17 08:22:51;;;;;;;14.80;6.97;;;;;;;;;;5065984;28;20340;-59
2022/06/17 08:25:17;;;;;;;12.80;7.68;;;;;;;;;;5065792;28;20041;-59
2022/06/17 08:27:46;;;;;;;11.07;7.28;;;;;;;;;;5065322;28;20064;-60
2022/06/17 08:30:13;;;;;;;11.55;7.05;;;;;;;;;;5065967;28;20344;-59
2022/06/17 08:32:45;;;;;;;14.40;7.38;;;;;;;;;;5065868;28;20029;-59
2022/06/17 08:35:12;;;;;;;15.95;6.90;;;;;;;;;;5065261;28;20051;-59
2022/06/17 08:37:38;;;;;;;26.13;7.90;;;;;;;;;;5065457;28;20545;-59
2022/06/17 08:40:12;;;;;;;12.32;7.60;;;;;;;;;;5065525;28;20032;-59
2022/06/17 08:42:47;;;;;;;12.38;7.30;;;;;;;;;;5062055;28;20463;-60
2022/06/17 08:45:28;;;;;;;10.15;6.60;;;;;;;;;;5065468;28;20421;-59
2022/06/17 08:48:02;;;;;;;13.30;7.18;;;;;;;;;;5065481;28;20090;-59
2022/06/17 08:50:44;;;;;;;14.25;7.30;;;;;;;;;;5064731;28;20098;-60
2022/06/17 08:53:35;;;;;;;15.50;7.07;;;;;;;;;;5065405;28;20045;-59
2022/06/17 08:56:06;;;;;;;16.45;6.40;;;;;;;;;;5064958;28;20133;-59
2022/06/17 08:58:41;;;;;;;13.63;5.80;;;;;;;;;;5064258;28;20089;-58
2022/06/17 09:01:13;;;;;;;9.52;5.75;;;;;;;;;;5064782;28;20047;-60
2022/06/17 09:03:50;;;;;;;125.68;10.43;;;;;;;;;;5064480;28;20044;-59
2022/06/17 09:06:27;;;;;;;10.45;4.60;;;;;;;;;;5065232;28;20529;-60
2022/06/17 09:09:01;;;;;;;14.38;4.55;;;;;;;;;;5065127;28;20202;-59
2022/06/17 09:11:33;;;;;;;14.07;5.13;;;;;;;;;;5062695;28;20055;-60
2022/06/17 09:14:11;;;;;;;10.35;4.57;;;;;;;;;;5063606;28;20072;-59
2022/06/17 09:16:44;;;;;;;21.35;5.25;;;;;;;;;;5064381;28;20504;-59
2022/06/17 09:19:12;;;;;;;16.42;5.00;;;;;;;;;;5064818;28;20049;-59
2022/06/17 09:21:42;;;;;;;12.75;4.97;;;;;;;;;;5064311;28;20036;-60
2022/06/17 09:24:10;;;;;;;11.45;4.50;;;;;;;;;;5061336;28;20039;-60
2022/06/17 09:26:45;;;;;;;8.45;4.28;;;;;;;;;;5063981;28;20041;-60
2022/06/17 09:29:11;;;;;;;11.50;4.60;;;;;;;;;;5064140;28;20036;-59
2022/06/17 09:31:40;;;;;;;9.82;5.05;;;;;;;;;;5064134;28;20098;-60
2022/06/17 09:34:12;;;;;;;10.02;4.82;;;;;;;;;;5064551;28;20062;-59
2022/06/17 09:36:42;;;;;;;12.57;4.30;;;;;;;;;;5063949;28;20047;-59
2022/06/17 09:39:20;;;;;;;12.63;5.25;;;;;;;;;;5064335;28;20044;-59
2022/06/17 09:41:50;;;;;;;19.48;5.90;;;;;;;;;;5064608;28;20158;-59
2022/06/17 09:44:21;;;;;;;12.55;5.13;;;;;;;;;;5061218;28;20036;-60
2022/06/17 09:46:50;;;;;;;11.25;4.95;;;;;;;;;;5064514;28;20044;-60
2022/06/17 09:49:21;;;;;;;9.70;3.80;;;;;;;;;;5064420;28;20067;-59
2022/06/17 09:51:52;;;;;;;8.55;3.25;;;;;;;;;;5064444;28;20053;-60
2022/06/17 09:54:31;;;;;;;20.73;4.97;;;;;;;;;;5063655;28;20044;-60
2022/06/17 09:57:01;;;;;;;19.73;6.45;;;;;;;;;;5063232;28;20112;-59
2022/06/17 09:59:32;;;;;;;9.32;4.50;;;;;;;;;;5063826;28;20133;-59
2022/06/17 10:01:59;;;;;;;11.60;5.28;;;;;;;;;;5063867;28;20037;-60
2022/06/17 10:04:26;;;;;;;7.40;4.57;;;;;;;;;;5063443;28;20056;-60
2022/06/17 10:06:52;;;;;;;9.52;4.63;;;;;;;;;;5063328;28;20051;-60
2022/06/17 10:09:27;;;;;;;12.80;4.75;;;;;;;;;;5063670;28;20036;-60
2022/06/17 10:11:54;;;;;;;10.27;4.18;;;;;;;;;;5063388;28;20037;-60
2022/06/17 10:14:26;;;;;;;16.20;4.70;;;;;;;;;;5063531;28;20048;-60
2022/06/17 10:19:56;;;;;;;7.83;4.83;;;;;;;;;;5063486;28;20043;-60
2022/06/17 10:22:29;;;;;;;12.65;5.40;;;;;;;;;;5063272;28;20044;-60
2022/06/17 10:25:06;;;;;;;6.63;5.00;;;;;;;;;;5063629;28;20032;-60
2022/06/17 10:27:42;;;;;;;7.90;4.20;;;;;;;;;;5062271;28;20041;-59
2022/06/17 10:30:08;;;;;;;9.23;4.93;;;;;;;;;;5063785;28;20032;-59
2022/06/17 10:32:37;;;;;;;10.07;5.47;;;;;;;;;;5062922;28;20040;-60
2022/06/17 10:35:05;;;;;;;14.52;4.75;;;;;;;;;;5063115;28;20091;-60
2022/06/17 10:37:34;;;;;;;11.27;4.82;;;;;;;;;;5062980;28;20041;-60
2022/06/17 10:40:01;;;;;;;20.38;5.20;;;;;;;;;;5063616;28;20505;-60
2022/06/17 10:42:28;;;;;;;9.80;4.50;;;;;;;;;;5061956;28;20513;-60
2022/06/17 10:44:57;;;;;;;9.30;4.50;;;;;;;;;;5063609;28;20051;-60
2022/06/17 10:47:42;;;;;;;9.25;3.90;;;;;;;;;;5063286;28;20120;-60
2022/06/17 10:50:17;;;;;;;8.68;4.25;;;;;;;;;;5061810;28;20040;-59
2022/06/17 10:52:46;;;;;;;8.00;4.22;;;;;;;;;;5063000;28;20044;-61
2022/06/17 10:55:15;;;;;;;7.57;3.95;;;;;;;;;;5057469;28;20497;-61
2022/06/17 10:58:01;;;;;;;12.07;4.32;;;;;;;;;;5056519;28;20139;-61
2022/06/17 11:00:28;;;;;;;10.38;4.70;;;;;;;;;;5060103;28;20052;-60
2022/06/17 11:02:54;;;;;;;9.48;4.47;;;;;;;;;;5060816;28;20047;-61
2022/06/17 11:05:31;;;;;;;12.38;4.57;;;;;;;;;;5061449;28;20087;-62
2022/06/17 11:07:57;;;;;;;12.52;5.15;;;;;;;;;;5057579;28;20089;-61
2022/06/17 11:10:27;;;;;;;26.90;6.07;;;;;;;;;;5059660;28;20055;-61
2022/06/17 11:12:55;;;;;;;13.15;4.85;;;;;;;;;;5059559;28;20032;-60
2022/06/17 11:15:24;;;;;;;11.15;4.50;;;;;;;;;;5055997;28;20067;-61
2022/06/17 11:17:52;;;;;;;8.27;4.47;;;;;;;;;;5060182;28;20106;-60
2022/06/17 11:20:18;;;;;;;7.97;4.40;;;;;;;;;;5059500;28;20040;-60
2022/06/17 11:22:56;;;;;;;11.63;5.00;;;;;;;;;;5061122;28;20063;-61
2022/06/17 11:25:26;;;;;;;13.77;5.40;;;;;;;;;;5060521;28;20029;-60
2022/06/17 11:27:55;;;;;;;8.68;5.35;;;;;;;;;;5059820;28;20036;-60
2022/06/17 11:30:21;;;;;;;12.95;5.25;;;;;;;;;;5059727;28;20815;-60
2022/06/17 11:32:48;;;;;;;9.35;5.63;;;;;;;;;;5057858;28;20056;-61
2022/06/17 11:35:19;;;;;;;16.65;5.70;;;;;;;;;;5060313;28;20036;-60
2022/06/17 11:37:46;;;;;;;17.15;5.55;;;;;;;;;;5058232;28;20048;-61
2022/06/17 11:40:17;;;;;;;12.57;4.72;;;;;;;;;;5060198;28;20529;-61
2022/06/17 11:42:45;;;;;;;9.85;4.60;;;;;;;;;;5057733;28;20032;-61
2022/06/17 11:45:15;;;;;;;17.83;5.15;;;;;;;;;;5061415;28;20048;-60
2022/06/17 11:47:45;;;;;;;15.35;5.70;;;;;;;;;;5065068;28;20040;-60
2022/06/17 11:50:15;;;;;;;33.95;6.47;;;;;;;;;;5065365;28;20053;-61
2022/06/17 11:52:42;;;;;;;11.43;4.63;;;;;;;;;;5065720;28;20041;-61
2022/06/17 11:55:09;;;;;;;17.00;6.00;;;;;;;;;;5065824;28;20106;-60
2022/06/17 11:57:37;;;;;;;16.83;6.35;;;;;;;;;;5065139;28;20052;-61
2022/06/17 12:00:06;;;;;;;11.05;5.55;;;;;;;;;;5065465;28;20490;-61
2022/06/17 12:02:32;;;;;;;10.20;5.60;;;;;;;;;;5065344;28;20044;-61
2022/06/17 12:05:08;;;;;;;10.68;6.03;;;;;;;;;;5065623;28;20051;-61
2022/06/17 12:07:44;;;;;;;7.35;4.78;;;;;;;;;;5065114;28;20052;-61
2022/06/17 12:10:22;;;;;;;15.48;5.43;;;;;;;;;;5065675;28;20103;-61
2022/06/17 12:12:51;;;;;;;9.05;5.25;;;;;;;;;;5064757;28;20119;-60
2022/06/17 12:15:24;;;;;;;18.00;5.82;;;;;;;;;;5065357;28;20051;-60
2022/06/17 12:17:51;;;;;;;10.07;5.88;;;;;;;;;;5064796;28;20043;-60
2022/06/17 12:20:18;;;;;;;12.00;5.85;;;;;;;;;;5064860;28;20048;-60
2022/06/17 12:22:48;;;;;;;10.27;5.50;;;;;;;;;;5065095;28;20127;-60
2022/06/17 12:25:14;;;;;;;10.85;5.07;;;;;;;;;;5065522;28;20127;-60
2022/06/17 12:27:45;;;;;;;10.27;4.45;;;;;;;;;;5064268;28;20493;-61
2022/06/17 12:30:14;;;;;;;11.73;5.57;;;;;;;;;;5061811;28;20041;-60
2022/06/17 12:32:41;;;;;;;10.05;4.35;;;;;;;;;;5062484;28;20075;-60
2022/06/17 12:35:25;;;;;;;6.07;3.80;;;;;;;;;;5062944;28;20113;-60
2022/06/17 12:37:56;;;;;;;12.43;4.35;;;;;;;;;;5063692;28;20048;-60
2022/06/17 12:40:27;;;;;;;9.57;4.28;;;;;;;;;;5064522;28;20049;-60
2022/06/17 12:43:12;;;;;;;8.25;4.20;;;;;;;;;;5064715;28;20634;-60
2022/06/17 12:45:42;;;;;;;7.43;3.55;;;;;;;;;;5062754;28;20040;-61
2022/06/17 12:48:18;;;;;;;6.88;3.90;;;;;;;;;;5076560;28;20509;-60
2022/06/17 12:53:55;;;;;;;691.00;55.13;;;;;;;;;;5064359;28;20048;-61
2022/06/17 12:56:33;;;;;;;577.30;42.97;;;;;;;;;;5064703;28;20638;-60
2022/06/17 12:58:59;;;;;;;;;;;;;;;;;;5065787;28;20109;-60
2022/06/17 13:01:40;;;;;;;11.15;3.55;;;;;;;;;;5065039;28;19923;-60
2022/06/17 13:04:14;;;;;;;17.05;3.55;;;;;;;;;;5064158;28;20861;-60
2022/06/17 13:06:48;;;;;;;14.68;3.78;;;;;;;;;;5064622;28;20058;-58
2022/06/17 13:09:14;;;;;;;11.40;3.50;;;;;;;;;;5064818;28;20042;-59
2022/06/17 13:11:40;;;;;;;50.85;4.53;;;;;;;;;;5063394;28;20043;-60
2022/06/17 13:14:07;;;;;;;4.80;2.95;;;;;;;;;;5065230;28;20076;-61
2022/06/17 13:16:45;;;;;;;6.00;3.65;;;;;;;;;;5064112;28;20036;-60
2022/06/17 13:19:11;;;;;;;;;;;;;;;;;;5065023;28;20501;-60
2022/06/17 13:21:42;;;;;;;11.07;3.50;;;;;;;;;;5062759;28;19930;-60
2022/06/17 13:24:21;;;;;;;7.93;3.83;;;;;;;;;;5062834;28;20044;-60
2022/06/17 13:26:58;;;;;;;8.95;4.25;;;;;;;;;;5061180;28;20059;-60
2022/06/17 13:29:34;;;;;;;6.57;4.15;;;;;;;;;;5063905;28;20719;-60
2022/06/17 13:32:10;;;;;;;14.45;4.38;;;;;;;;;;5064764;28;20107;-60
2022/06/17 13:34:42;;;;;;;12.52;3.45;;;;;;;;;;5062684;28;20086;-60
2022/06/17 13:37:09;;;;;;;14.82;4.03;;;;;;;;;;5061448;28;20127;-60
2022/06/17 13:39:38;;;;;;;10.82;4.00;;;;;;;;;;5063367;28;20137;-61
2022/06/17 13:42:06;;;;;;;12.10;4.10;;;;;;;;;;5062799;28;20045;-60
2022/06/17 13:44:54;;;;;;;9.25;3.60;;;;;;;;;;5063313;28;20068;-61
2022/06/17 13:47:21;;;;;;;5.60;3.35;;;;;;;;;;5062279;28;20119;-60
2022/06/17 13:49:54;;;;;;;9.80;4.53;;;;;;;;;;5063724;28;20056;-60
2022/06/17 13:52:28;;;;;;;14.13;4.20;;;;;;;;;;5063393;28;20067;-60
2022/06/17 13:55:11;;;;;;;11.93;4.00;;;;;;;;;;5063768;28;20048;-59
2022/06/17 13:57:43;;;;;;;9.30;3.97;;;;;;;;;;5062303;28;20040;-59
2022/06/17 14:00:20;;;;;;;10.50;3.88;;;;;;;;;;5062967;28;20036;-60
2022/06/17 14:02:55;;;;;;;11.13;3.95;;;;;;;;;;5062664;28;20151;-59
2022/06/17 14:05:21;;;;;;;14.98;5.32;;;;;;;;;;5063203;28;20055;-59
2022/06/17 14:08:06;;;;;;;9.40;4.13;;;;;;;;;;5061974;28;20045;-59
2022/06/17 14:10:50;;;;;;;6.03;3.58;;;;;;;;;;5062985;28;20036;-59
2022/06/17 14:13:19;;;;;;;15.38;3.75;;;;;;;;;;5062812;28;20306;-59
2022/06/17 14:15:47;;;;;;;20.13;3.97;;;;;;;;;;5064075;28;20032;-59
2022/06/17 14:18:19;;;;;;;8.43;4.13;;;;;;;;;;5061577;28;20131;-59
2022/06/17 14:20:46;;;;;;;7.50;3.20;;;;;;;;;;5063936;28;20041;-59
2022/06/17 14:23:16;;;;;;;9.90;3.13;;;;;;;;;;5063569;28;20554;-59
2022/06/17 14:25:46;;;;;;;8.85;2.88;;;;;;;;;;5062708;28;20137;-59
2022/06/17 14:28:30;;;;;;;10.93;3.50;;;;;;;;;;5063611;28;20049;-59
2022/06/17 14:31:12;;;;;;;6.93;3.25;;;;;;;;;;5063727;28;20041;-59
2022/06/17 14:33:42;;;;;;;5.57;3.22;;;;;;;;;;5062252;28;20052;-59
2022/06/17 14:36:13;;;;;;;9.35;3.25;;;;;;;;;;5063294;28;20041;-59
2022/06/17 14:38:41;;;;;;;9.90;3.80;;;;;;;;;;5063352;28;20037;-59
2022/06/17 14:44:01;;;;;;;10.68;3.15;;;;;;;;;;5060973;28;20537;-59
2022/06/17 14:46:27;;;;;;;10.35;3.47;;;;;;;;;;5062267;28;20125;-60
2022/06/17 14:49:12;;;;;;;15.85;3.20;;;;;;;;;;5062564;28;20040;-59
2022/06/17 14:51:41;;;;;;;8.68;3.25;;;;;;;;;;5062438;28;20425;-58
2022/06/17 14:54:10;;;;;;;10.77;3.17;;;;;;;;;;5059999;28;20126;-59
2022/06/17 14:56:45;;;;;;;9.95;3.15;;;;;;;;;;5060156;28;20790;-59
2022/06/17 14:59:15;;;;;;;9.23;3.05;;;;;;;;;;5061617;28;20126;-59
2022/06/17 15:01:45;;;;;;;7.97;3.03;;;;;;;;;;5061777;28;20486;-58